Time;durP1;ratioP1;P1;durP2;ratioP2;P2;SDS_P1;SDS_P2;PMS_P1;PMS_P2;Temp;Humidity;BMP_temperature;BMP_pressure;BME280_temperature;BME280_humidity;BME280_pressure;Samples;Min_cycle;Max_cycle;Signal;HPM_P1;HPM_P2
2022/09/13 00:02:05;;;;;;;;;;;;;;;;;;4936944;29;19945;-90
2022/09/13 00:04:30;;;;;;;;;;;;;;;;;;4934276;29;19915;-90
2022/09/13 00:06:55;;;;;;;;;;;;;;;;;;4938489;29;19919;-89
2022/09/13 00:09:21;;;;;;;;;;;;;;;;;;4936163;29;19922;-90
2022/09/13 00:11:46;;;;;;;;;;;;;;;;;;4943911;29;19915;-90
2022/09/13 00:14:11;;;;;;;;;;;;;;;;;;4941507;29;19986;-90
2022/09/13 00:16:36;;;;;;;;;;;;;;;;;;4934296;29;19919;-91
2022/09/13 00:19:01;;;;;;;;;;;;;;;;;;4943925;29;19918;-90
2022/09/13 00:21:27;;;;;;;;;;;;;;;;;;4941745;29;19922;-90
2022/09/13 00:23:53;;;;;;;;;;;;;;;;;;4942034;29;20438;-91
2022/09/13 00:26:18;;;;;;;;;;;;;;;;;;4932831;29;19919;-89
2022/09/13 00:28:44;;;;;;;;;;;;;;;;;;4935973;29;19922;-89
2022/09/13 00:31:09;;;;;;;;;;;;;;;;;;4940577;29;19993;-90
2022/09/13 00:33:34;;;;;;;;;;;;;;;;;;4937078;29;20325;-90
2022/09/13 00:35:59;;;;;;;;;;;;;;;;;;4941472;29;20005;-90
2022/09/13 00:38:25;;;;;;;;;;;;;;;;;;4943149;29;19925;-90
2022/09/13 00:40:50;;;;;;;;;;;;;;;;;;4935026;29;19918;-90
2022/09/13 00:43:15;;;;;;;;;;;;;;;;;;4936316;29;20508;-91
2022/09/13 00:45:40;;;;;;;;;;;;;;;;;;4945563;29;20001;-89
2022/09/13 00:48:05;;;;;;;;;;;;;;;;;;4937359;29;20104;-89
2022/09/13 00:50:30;;;;;;;;;;;;;;;;;;4942633;29;19948;-90
2022/09/13 00:52:56;;;;;;;;;;;;;;;;;;4943963;29;19915;-89
2022/09/13 00:55:21;;;;;;;;;;;;;;;;;;4946212;29;19911;-89
2022/09/13 00:57:46;;;;;;;;;;;;;;;;;;4935670;29;19926;-90
2022/09/13 01:00:12;;;;;;;;;;;;;;;;;;4944458;29;19926;-90
2022/09/13 01:02:37;;;;;;;;;;;;;;;;;;4936526;29;19919;-89
2022/09/13 01:05:03;;;;;;;;;;;;;;;;;;4944688;29;20399;-89
2022/09/13 01:07:28;;;;;;;;;;;;;;;;;;4938571;29;19994;-90
2022/09/13 01:09:53;;;;;;;;;;;;;;;;;;4916903;29;20013;-89
2022/09/13 01:12:19;;;;;;;;;;;;;;;;;;4932694;29;19914;-89
2022/09/13 01:14:44;;;;;;;;;;;;;;;;;;4927303;29;19929;-90
2022/09/13 01:17:09;;;;;;;;;;;;;;;;;;4937276;29;19915;-90
2022/09/13 01:19:35;;;;;;;;;;;;;;;;;;4931242;29;19923;-90
2022/09/13 01:22:00;;;;;;;;;;;;;;;;;;4936903;29;19918;-90
2022/09/13 01:24:25;;;;;;;;;;;;;;;;;;4937973;29;20432;-89
2022/09/13 01:26:51;;;;;;;;;;;;;;;;;;4939531;29;19965;-89
2022/09/13 01:29:16;;;;;;;;;;;;;;;;;;4938498;29;20141;-89
2022/09/13 01:31:41;;;;;;;;;;;;;;;;;;4932295;29;19950;-89
2022/09/13 01:34:07;;;;;;;;;;;;;;;;;;4935906;29;19922;-89
2022/09/13 01:36:32;;;;;;;;;;;;;;;;;;4931926;29;19915;-89
2022/09/13 01:38:57;;;;;;;;;;;;;;;;;;4945576;28;20285;-88
2022/09/13 01:41:23;;;;;;;;;;;;;;;;;;4951893;29;19965;-89
2022/09/13 01:43:48;;;;;;;;;;;;;;;;;;4936031;29;19957;-89
2022/09/13 01:46:13;;;;;;;;;;;;;;;;;;4935973;29;19915;-88
2022/09/13 01:48:39;;;;;;;;;;;;;;;;;;4952004;29;19911;-89
2022/09/13 01:51:04;;;;;;;;;;;;;;;;;;4955213;29;19911;-89
2022/09/13 01:53:29;;;;;;;;;;;;;;;;;;4935176;29;19915;-89
2022/09/13 01:55:54;;;;;;;;;;;;;;;;;;4945521;29;20341;-89
2022/09/13 01:58:19;;;;;;;;;;;;;;;;;;4955660;29;19957;-88
2022/09/13 02:00:44;;;;;;;;;;;;;;;;;;4954829;29;19910;-89
2022/09/13 02:03:10;;;;;;;;;;;;;;;;;;4936096;29;19915;-88
2022/09/13 02:05:35;;;;;;;;;;;;;;;;;;4934940;29;19919;-87
2022/09/13 02:08:00;;;;;;;;;;;;;;;;;;4935872;29;19939;-89
2022/09/13 02:10:25;;;;;;;;;;;;;;;;;;4933304;29;19911;-89
2022/09/13 02:12:50;;;;;;;;;;;;;;;;;;4899954;29;19911;-89
2022/09/13 02:15:16;;;;;;;;;;;;;;;;;;4917102;29;20474;-89
2022/09/13 02:17:41;;;;;;;;;;;;;;;;;;4922649;29;20377;-88
2022/09/13 02:20:06;;;;;;;;;;;;;;;;;;4917052;29;19938;-87
2022/09/13 02:22:31;;;;;;;;;;;;;;;;;;4945798;29;20369;-89
2022/09/13 02:24:56;;;;;;;;;;;;;;;;;;4924101;29;20392;-89
2022/09/13 02:27:22;;;;;;;;;;;;;;;;;;4915934;29;20055;-89
2022/09/13 02:29:47;;;;;;;;;;;;;;;;;;4928665;29;19915;-89
2022/09/13 02:32:12;;;;;;;;;;;;;;;;;;4935392;29;19911;-89
2022/09/13 02:34:37;;;;;;;;;;;;;;;;;;4942823;29;19911;-89
2022/09/13 02:37:03;;;;;;;;;;;;;;;;;;4935859;29;19918;-89
2022/09/13 02:39:28;;;;;;;;;;;;;;;;;;4923058;29;19918;-90
2022/09/13 02:41:53;;;;;;;;;;;;;;;;;;4919910;29;19915;-89
2022/09/13 02:44:18;;;;;;;;;;;;;;;;;;4942233;29;20269;-89
2022/09/13 02:46:43;;;;;;;;;;;;;;;;;;4936043;29;19961;-89
2022/09/13 02:49:08;;;;;;;;;;;;;;;;;;4935151;29;19918;-89
2022/09/13 02:51:34;;;;;;;;;;;;;;;;;;4944193;29;19910;-89
2022/09/13 02:53:59;;;;;;;;;;;;;;;;;;4934608;29;19986;-89
2022/09/13 02:56:25;;;;;;;;;;;;;;;;;;4947295;29;19911;-89
2022/09/13 02:58:50;;;;;;;;;;;;;;;;;;4943034;29;20465;-89
2022/09/13 03:01:15;;;;;;;;;;;;;;;;;;4947839;29;19910;-89
2022/09/13 03:03:40;;;;;;;;;;;;;;;;;;4937944;29;19933;-89
2022/09/13 03:06:06;;;;;;;;;;;;;;;;;;4934750;29;19938;-89
2022/09/13 03:08:33;;;;;;;;;;;;;;;;;;4935318;29;19963;-88
2022/09/13 03:10:58;;;;;;;;;;;;;;;;;;4920665;29;20370;-89
2022/09/13 03:13:24;;;;;;;;;;;;;;;;;;4949882;29;19922;-89
2022/09/13 03:15:49;;;;;;;;;;;;;;;;;;4936031;29;20365;-89
2022/09/13 03:18:14;;;;;;;;;;;;;;;;;;4942594;29;19918;-89
2022/09/13 03:20:40;;;;;;;;;;;;;;;;;;4934547;29;19917;-90
2022/09/13 03:23:05;;;;;;;;;;;;;;;;;;4936552;29;19942;-89
2022/09/13 03:25:30;;;;;;;;;;;;;;;;;;4936387;29;20284;-88
2022/09/13 03:27:55;;;;;;;;;;;;;;;;;;4934740;29;19914;-90
2022/09/13 03:30:20;;;;;;;;;;;;;;;;;;4934832;29;19911;-89
2022/09/13 03:32:45;;;;;;;;;;;;;;;;;;4935214;29;19911;-89
2022/09/13 03:35:11;;;;;;;;;;;;;;;;;;4935313;29;19911;-90
2022/09/13 03:37:36;;;;;;;;;;;;;;;;;;4920897;29;20285;-89
2022/09/13 03:40:01;;;;;;;;;;;;;;;;;;4923094;29;20301;-89
2022/09/13 03:42:26;;;;;;;;;;;;;;;;;;4935606;29;19997;-89
2022/09/13 03:44:51;;;;;;;;;;;;;;;;;;4945774;29;19911;-89
2022/09/13 03:47:17;;;;;;;;;;;;;;;;;;4953972;29;19919;-89
2022/09/13 03:49:43;;;;;;;;;;;;;;;;;;4953961;29;20287;-89
2022/09/13 03:52:08;;;;;;;;;;;;;;;;;;4954002;29;19918;-89
2022/09/13 03:54:33;;;;;;;;;;;;;;;;;;4940810;29;19915;-89
2022/09/13 03:56:58;;;;;;;;;;;;;;;;;;4952132;29;20416;-89
2022/09/13 03:59:24;;;;;;;;;;;;;;;;;;4935310;29;19950;-88
2022/09/13 04:01:50;;;;;;;;;;;;;;;;;;4937226;29;20317;-90
2022/09/13 04:04:15;;;;;;;;;;;;;;;;;;4937969;29;19911;-89
2022/09/13 04:06:41;;;;;;;;;;;;;;;;;;4945736;29;19914;-89
2022/09/13 04:09:08;;;;;;;;;;;;;;;;;;4956838;29;19912;-90
2022/09/13 04:11:33;;;;;;;;;;;;;;;;;;4950260;29;19922;-90
2022/09/13 04:13:58;;;;;;;;;;;;;;;;;;4938264;29;19910;-89
2022/09/13 04:16:24;;;;;;;;;;;;;;;;;;4937694;29;19915;-89
2022/09/13 04:18:49;;;;;;;;;;;;;;;;;;4930232;29;20016;-89
2022/09/13 04:21:15;;;;;;;;;;;;;;;;;;4937719;29;19911;-89
2022/09/13 04:23:40;;;;;;;;;;;;;;;;;;4944583;29;19933;-90
2022/09/13 04:26:05;;;;;;;;;;;;;;;;;;4933670;29;20361;-89
2022/09/13 04:28:31;;;;;;;;;;;;;;;;;;4937369;29;19911;-89
2022/09/13 04:30:56;;;;;;;;;;;;;;;;;;4949821;28;19915;-89
2022/09/13 04:33:22;;;;;;;;;;;;;;;;;;4940522;29;19923;-89
2022/09/13 04:35:47;;;;;;;;;;;;;;;;;;4919137;29;19911;-90
2022/09/13 04:38:14;;;;;;;;;;;;;;;;;;4925955;29;19923;-89
2022/09/13 04:40:40;;;;;;;;;;;;;;;;;;4920497;29;19915;-90
2022/09/13 04:43:05;;;;;;;;;;;;;;;;;;4954752;29;19910;-89
2022/09/13 04:45:30;;;;;;;;;;;;;;;;;;4937533;29;20051;-89
2022/09/13 04:47:55;;;;;;;;;;;;;;;;;;4937519;29;19911;-88
2022/09/13 04:50:20;;;;;;;;;;;;;;;;;;4943681;29;19911;-89
2022/09/13 04:52:46;;;;;;;;;;;;;;;;;;4937731;29;19911;-90
2022/09/13 04:55:11;;;;;;;;;;;;;;;;;;4949264;28;20283;-89
2022/09/13 04:57:36;;;;;;;;;;;;;;;;;;4937548;29;20019;-89
2022/09/13 05:00:01;;;;;;;;;;;;;;;;;;4937449;29;19997;-90
2022/09/13 05:02:27;;;;;;;;;;;;;;;;;;4937409;29;19915;-90
2022/09/13 05:04:52;;;;;;;;;;;;;;;;;;4937310;29;19914;-89
2022/09/13 05:07:17;;;;;;;;;;;;;;;;;;4941252;29;20004;-89
2022/09/13 05:09:42;;;;;;;;;;;;;;;;;;4937020;29;19910;-89
2022/09/13 05:12:07;;;;;;;;;;;;;;;;;;4944602;29;20377;-89
2022/09/13 05:14:33;;;;;;;;;;;;;;;;;;4936603;29;19918;-89
2022/09/13 05:16:59;;;;;;;;;;;;;;;;;;4935615;29;19911;-89
2022/09/13 05:19:24;;;;;;;;;;;;;;;;;;4955993;28;19910;-89
2022/09/13 05:21:49;;;;;;;;;;;;;;;;;;4952557;28;19911;-89
2022/09/13 05:24:14;;;;;;;;;;;;;;;;;;4927584;29;19986;-89
2022/09/13 05:26:41;;;;;;;;;;;;;;;;;;4928717;29;20451;-90
2022/09/13 05:29:06;;;;;;;;;;;;;;;;;;4937798;29;19918;-88
2022/09/13 05:31:32;;;;;;;;;;;;;;;;;;4936581;29;19919;-89
2022/09/13 05:33:57;;;;;;;;;;;;;;;;;;4935434;29;20464;-89
2022/09/13 05:36:22;;;;;;;;;;;;;;;;;;4926885;29;19927;-89
2022/09/13 05:38:47;;;;;;;;;;;;;;;;;;4933463;29;19915;-89
2022/09/13 05:41:13;;;;;;;;;;;;;;;;;;4945475;29;20281;-87
2022/09/13 05:43:38;;;;;;;;;;;;;;;;;;4936011;29;20010;-90
2022/09/13 05:46:03;;;;;;;;;;;;;;;;;;4939303;29;20288;-89
2022/09/13 05:48:28;;;;;;;;;;;;;;;;;;4939119;29;20369;-90
2022/09/13 05:50:54;;;;;;;;;;;;;;;;;;4936068;29;19917;-90
2022/09/13 05:53:19;;;;;;;;;;;;;;;;;;4947625;28;19925;-88
2022/09/13 05:55:44;;;;;;;;;;;;;;;;;;4924967;29;19915;-90
2022/09/13 05:58:09;;;;;;;;;;;;;;;;;;4950003;29;20013;-90
2022/09/13 06:00:34;;;;;;;;;;;;;;;;;;4943248;29;19937;-89
2022/09/13 06:02:59;;;;;;;;;;;;;;;;;;4933680;29;19947;-89
2022/09/13 06:05:25;;;;;;;;;;;;;;;;;;4934278;29;19921;-89
2022/09/13 06:07:50;;;;;;;;;;;;;;;;;;4929722;29;20285;-89
2022/09/13 06:10:15;;;;;;;;;;;;;;;;;;4919823;29;19961;-90
2022/09/13 06:12:40;;;;;;;;;;;;;;;;;;4922705;29;20287;-88
2022/09/13 06:15:05;;;;;;;;;;;;;;;;;;4933952;29;20373;-90
2022/09/13 06:17:31;;;;;;;;;;;;;;;;;;4938240;29;19915;-88
2022/09/13 06:19:56;;;;;;;;;;;;;;;;;;4931328;29;20242;-88
2022/09/13 06:22:21;;;;;;;;;;;;;;;;;;4938839;29;19911;-89
2022/09/13 06:24:46;;;;;;;;;;;;;;;;;;4945407;29;19914;-89
2022/09/13 06:27:11;;;;;;;;;;;;;;;;;;4932893;29;20286;-89
2022/09/13 06:29:36;;;;;;;;;;;;;;;;;;4934403;29;20021;-88
2022/09/13 06:32:02;;;;;;;;;;;;;;;;;;4942118;29;19914;-90
2022/09/13 06:34:27;;;;;;;;;;;;;;;;;;4930039;29;20456;-89
2022/09/13 06:36:52;;;;;;;;;;;;;;;;;;4939209;29;19922;-89
2022/09/13 06:39:17;;;;;;;;;;;;;;;;;;4934870;29;19915;-90
2022/09/13 06:41:42;;;;;;;;;;;;;;;;;;4936396;29;20161;-89
2022/09/13 06:44:07;;;;;;;;;;;;;;;;;;4934708;29;19911;-89
2022/09/13 06:46:33;;;;;;;;;;;;;;;;;;4934285;29;19918;-89
2022/09/13 06:48:58;;;;;;;;;;;;;;;;;;4923766;29;20009;-89
2022/09/13 06:51:23;;;;;;;;;;;;;;;;;;4930751;29;19921;-89
2022/09/13 06:53:48;;;;;;;;;;;;;;;;;;4934240;29;20305;-89
2022/09/13 06:56:13;;;;;;;;;;;;;;;;;;4935526;29;20005;-90
2022/09/13 06:58:38;;;;;;;;;;;;;;;;;;4927837;29;20365;-87
2022/09/13 07:01:05;;;;;;;;;;;;;;;;;;4936654;29;20007;-87
2022/09/13 07:03:30;;;;;;;;;;;;;;;;;;4934409;29;20285;-89
2022/09/13 07:05:56;;;;;;;;;;;;;;;;;;4941749;29;19998;-89
2022/09/13 07:08:21;;;;;;;;;;;;;;;;;;4953320;29;19911;-89
2022/09/13 07:10:47;;;;;;;;;;;;;;;;;;4950365;29;20358;-90
2022/09/13 07:13:12;;;;;;;;;;;;;;;;;;4934410;29;19919;-89
2022/09/13 07:15:37;;;;;;;;;;;;;;;;;;4934953;29;19922;-89
2022/09/13 07:18:02;;;;;;;;;;;;;;;;;;4945572;29;19972;-88
2022/09/13 07:20:27;;;;;;;;;;;;;;;;;;4937797;29;20308;-88
2022/09/13 07:22:52;;;;;;;;;;;;;;;;;;4934270;29;19922;-89
2022/09/13 07:25:18;;;;;;;;;;;;;;;;;;4916302;29;20053;-89
2022/09/13 07:27:43;;;;;;;;;;;;;;;;;;4930612;29;19919;-89
2022/09/13 07:30:08;;;;;;;;;;;;;;;;;;4912395;29;19978;-89
2022/09/13 07:32:33;;;;;;;;;;;;;;;;;;4936085;29;19914;-90
2022/09/13 07:34:58;;;;;;;;;;;;;;;;;;4934533;29;20317;-90
2022/09/13 11:04:00;;;;;;;;;;;;;;;;;;4937149;29;19977;-86
2022/09/13 11:06:25;;;;;;;;;;;;;;;;;;4921047;29;19954;-87
2022/09/13 11:08:51;;;;;;;;;;;;;;;;;;4941471;29;20056;-87
2022/09/13 11:11:16;;;;;;;;;;;;;;;;;;4937685;28;19922;-88
2022/09/13 11:13:41;;;;;;;;;;;;;;;;;;4941671;29;20269;-87
2022/09/13 11:16:06;;;;;;;;;;;;;;;;;;4948690;23;20029;-91
2022/09/13 11:18:31;;;;;;;;;;;;;;;;;;4931813;29;20395;-92
2022/09/13 11:20:56;;;;;;;;;;;;;;;;;;4933279;29;19915;-92
2022/09/13 11:23:22;;;;;;;;;;;;;;;;;;4937349;29;20041;-93
2022/09/13 11:25:47;;;;;;;;;;;;;;;;;;4934219;29;19922;-92
2022/09/13 11:28:12;;;;;;;;;;;;;;;;;;4934608;29;19923;-92
2022/09/13 11:30:37;;;;;;;;;;;;;;;;;;4929729;29;20017;-90
2022/09/13 11:33:02;;;;;;;;;;;;;;;;;;4931347;29;19922;-92
2022/09/13 11:35:27;;;;;;;;;;;;;;;;;;4938605;29;19982;-92
2022/09/13 11:37:53;;;;;;;;;;;;;;;;;;4928819;29;19914;-92
2022/09/13 11:40:18;;;;;;;;;;;;;;;;;;4936128;29;19915;-90
2022/09/13 11:42:43;;;;;;;;;;;;;;;;;;4932416;29;19983;-90
2022/09/13 11:45:09;;;;;;;;;;;;;;;;;;4928744;29;20588;-90
2022/09/13 11:47:34;;;;;;;;;;;;;;;;;;4936329;29;19925;-91
2022/09/13 11:49:59;;;;;;;;;;;;;;;;;;4923276;29;20345;-91
2022/09/13 11:52:25;;;;;;;;;;;;;;;;;;4935151;29;19915;-92
2022/09/13 11:54:51;;;;;;;;;;;;;;;;;;4930651;29;19942;-91
2022/09/13 11:57:17;;;;;;;;;;;;;;;;;;4931962;29;20380;-91
2022/09/13 11:59:42;;;;;;;;;;;;;;;;;;4932534;29;20203;-89
2022/09/13 12:02:07;;;;;;;;;;;;;;;;;;4938247;29;20009;-89
2022/09/13 12:04:32;;;;;;;;;;;;;;;;;;4929407;29;19915;-89
2022/09/13 12:06:58;;;;;;;;;;;;;;;;;;4931368;29;19923;-90
2022/09/13 12:09:23;;;;;;;;;;;;;;;;;;4936771;29;19965;-89
2022/09/13 12:11:48;;;;;;;;;;;;;;;;;;4933333;29;19946;-89
2022/09/13 12:14:14;;;;;;;;;;;;;;;;;;4934398;29;19919;-89
2022/09/13 12:16:39;;;;;;;;;;;;;;;;;;4932834;29;19933;-90
2022/09/13 12:19:04;;;;;;;;;;;;;;;;;;4938238;29;20411;-90
2022/09/13 12:21:29;;;;;;;;;;;;;;;;;;4925704;29;20247;-90
2022/09/13 12:23:55;;;;;;;;;;;;;;;;;;4922820;29;19923;-90
2022/09/13 12:26:20;;;;;;;;;;;;;;;;;;4932614;29;20011;-92
2022/09/13 12:28:45;;;;;;;;;;;;;;;;;;4920814;29;20502;-89
2022/09/13 12:31:10;;;;;;;;;;;;;;;;;;4929543;29;20373;-89
2022/09/13 12:33:36;;;;;;;;;;;;;;;;;;4936890;29;19927;-92
2022/09/13 12:36:01;;;;;;;;;;;;;;;;;;4931818;29;19921;-91
2022/09/13 12:38:26;;;;;;;;;;;;;;;;;;4930682;29;19926;-93
2022/09/13 12:40:51;;;;;;;;;;;;;;;;;;4933941;28;19926;-89
2022/09/13 12:43:16;;;;;;;;;;;;;;;;;;4929220;29;19919;-91
2022/09/13 12:45:41;;;;;;;;;;;;;;;;;;4933391;29;20167;-92
2022/09/13 12:48:07;;;;;;;;;;;;;;;;;;4939506;28;20381;-90
2022/09/13 12:50:32;;;;;;;;;;;;;;;;;;4933040;29;19922;-91
2022/09/13 12:52:57;;;;;;;;;;;;;;;;;;4940666;29;20336;-92
2022/09/13 12:55:22;;;;;;;;;;;;;;;;;;4933725;29;19931;-91
2022/09/13 12:57:47;;;;;;;;;;;;;;;;;;4934295;29;19923;-91
2022/09/13 13:00:13;;;;;;;;;;;;;;;;;;4934660;28;20529;-92
2022/09/13 13:02:38;;;;;;;;;;;;;;;;;;4929296;29;20337;-91
2022/09/13 13:05:03;;;;;;;;;;;;;;;;;;4928199;29;19918;-89
2022/09/13 13:07:28;;;;;;;;;;;;;;;;;;4931436;29;19948;-90
2022/09/13 13:09:53;;;;;;;;;;;;;;;;;;4928933;29;20001;-92
2022/09/13 13:12:19;;;;;;;;;;;;;;;;;;4941917;29;19915;-89
2022/09/13 13:14:44;;;;;;;;;;;;;;;;;;4930296;29;19969;-93
2022/09/13 13:17:09;;;;;;;;;;;;;;;;;;4931539;28;19926;-91
2022/09/13 13:19:35;;;;;;;;;;;;;;;;;;4929122;29;19918;-91
2022/09/13 13:22:01;;;;;;;;;;;;;;;;;;4923992;29;19966;-92
2022/09/13 13:24:26;;;;;;;;;;;;;;;;;;4932132;29;19919;-92
2022/09/13 13:26:53;;;;;;;;;;;;;;;;;;4925184;29;20413;-91
2022/09/13 13:29:18;;;;;;;;;;;;;;;;;;4928831;29;19922;-92
2022/09/13 13:31:43;;;;;;;;;;;;;;;;;;4929447;29;20489;-92
2022/09/13 13:34:09;;;;;;;;;;;;;;;;;;4930636;29;19929;-93
2022/09/13 13:36:34;;;;;;;;;;;;;;;;;;4928859;28;20436;-91
2022/09/13 13:39:00;;;;;;;;;;;;;;;;;;4924492;29;19923;-92
2022/09/13 13:41:26;;;;;;;;;;;;;;;;;;4928692;29;19993;-91
2022/09/13 13:43:51;;;;;;;;;;;;;;;;;;4929898;29;20380;-91
2022/09/13 13:46:16;;;;;;;;;;;;;;;;;;4927592;29;19926;-90
2022/09/13 13:48:42;;;;;;;;;;;;;;;;;;4925248;29;19923;-92
2022/09/13 13:51:07;;;;;;;;;;;;;;;;;;4916098;29;19941;-92
2022/09/13 13:53:33;;;;;;;;;;;;;;;;;;4931904;29;19914;-91
2022/09/13 13:55:58;;;;;;;;;;;;;;;;;;4929133;29;19962;-91
2022/09/13 13:58:23;;;;;;;;;;;;;;;;;;4940584;29;20361;-91
2022/09/13 14:00:48;;;;;;;;;;;;;;;;;;4908639;29;20470;-91
2022/09/13 14:03:13;;;;;;;;;;;;;;;;;;4925230;29;19929;-92
2022/09/13 14:05:39;;;;;;;;;;;;;;;;;;4921781;29;19927;-92
2022/09/13 14:08:04;;;;;;;;;;;;;;;;;;4924347;28;19985;-93
2022/09/13 14:10:29;;;;;;;;;;;;;;;;;;4934099;28;19923;-92
2022/09/13 14:12:54;;;;;;;;;;;;;;;;;;4928376;29;20063;-90
2022/09/13 14:15:23;;;;;;;;;;;;;;;;;;4930245;29;19997;-92
2022/09/13 14:17:48;;;;;;;;;;;;;;;;;;4922028;29;19923;-92
2022/09/13 14:20:13;;;;;;;;;;;;;;;;;;4927860;29;20166;-92
2022/09/13 14:22:38;;;;;;;;;;;;;;;;;;4923148;29;19929;-92
2022/09/13 14:25:04;;;;;;;;;;;;;;;;;;4928027;28;20481;-90
2022/09/13 14:27:29;;;;;;;;;;;;;;;;;;4908800;29;19923;-90
2022/09/13 14:29:54;;;;;;;;;;;;;;;;;;4930575;29;19919;-90
2022/09/13 14:32:19;;;;;;;;;;;;;;;;;;4928491;29;20007;-92
2022/09/13 14:34:45;;;;;;;;;;;;;;;;;;4928674;28;19915;-91
2022/09/13 14:37:12;;;;;;;;;;;;;;;;;;4934845;29;19978;-89
2022/09/13 14:39:37;;;;;;;;;;;;;;;;;;4927613;29;20266;-91
2022/09/13 14:42:03;;;;;;;;;;;;;;;;;;4927709;29;19918;-90
2022/09/13 14:44:28;;;;;;;;;;;;;;;;;;4936353;28;19915;-90
2022/09/13 14:46:53;;;;;;;;;;;;;;;;;;4926730;29;19923;-92
2022/09/13 14:49:18;;;;;;;;;;;;;;;;;;4934103;29;19923;-92
2022/09/13 14:51:43;;;;;;;;;;;;;;;;;;4928261;29;19915;-92
2022/09/13 14:54:09;;;;;;;;;;;;;;;;;;4926633;29;19946;-89
2022/09/13 14:56:34;;;;;;;;;;;;;;;;;;4931366;29;20378;-90
2022/09/13 14:58:59;;;;;;;;;;;;;;;;;;4929624;29;19923;-91
2022/09/13 15:01:24;;;;;;;;;;;;;;;;;;4922103;29;19983;-91
2022/09/13 15:03:50;;;;;;;;;;;;;;;;;;4924422;29;20006;-92
2022/09/13 15:06:15;;;;;;;;;;;;;;;;;;4932750;29;20013;-91
2022/09/13 15:08:40;;;;;;;;;;;;;;;;;;4925125;29;20006;-92
2022/09/13 15:11:06;;;;;;;;;;;;;;;;;;4927569;29;19923;-91
2022/09/13 15:13:31;;;;;;;;;;;;;;;;;;4928260;29;20453;-90
2022/09/13 15:15:56;;;;;;;;;;;;;;;;;;4924165;29;19918;-91
2022/09/13 15:18:24;;;;;;;;;;;;;;;;;;4925966;29;20379;-91
2022/09/13 15:20:49;;;;;;;;;;;;;;;;;;4926726;29;19967;-92
2022/09/13 17:57:10;;;;;;;;;;;;;;;;;;;;;
2022/09/13 17:59:33;;;;;;;;;;;;;;;;;;4920286;29;19919;-89
2022/09/13 18:01:59;;;;;;;;;;;;;;;;;;4928657;29;20285;-89
2022/09/13 18:04:25;;;;;;;;;;;;;;;;;;4930892;29;19914;-89
2022/09/13 18:06:50;;;;;;;;;;;;;;;;;;4927148;29;19919;-89
2022/09/13 18:09:15;;;;;;;;;;;;;;;;;;4926519;29;20278;-88
2022/09/13 18:11:40;;;;;;;;;;;;;;;;;;4927217;29;20152;-89
2022/09/13 18:14:05;;;;;;;;;;;;;;;;;;4927013;29;19966;-89
2022/09/13 18:16:30;;;;;;;;;;;;;;;;;;4928452;29;20017;-89
2022/09/13 18:18:56;;;;;;;;;;;;;;;;;;4922869;29;19930;-88
2022/09/13 18:21:21;;;;;;;;;;;;;;;;;;4918627;29;19969;-88
2022/09/13 18:23:46;;;;;;;;;;;;;;;;;;4921728;29;19951;-89
2022/09/13 18:26:11;;;;;;;;;;;;;;;;;;4926913;29;20160;-88
2022/09/13 18:28:36;;;;;;;;;;;;;;;;;;4923907;29;20502;-88
2022/09/13 18:31:04;;;;;;;;;;;;;;;;;;4922664;29;19919;-88
2022/09/13 18:33:29;;;;;;;;;;;;;;;;;;4920842;29;19919;-88
2022/09/13 18:35:54;;;;;;;;;;;;;;;;;;4923557;29;20286;-88
2022/09/13 18:38:20;;;;;;;;;;;;;;;;;;4920899;29;19961;-88
2022/09/13 18:40:45;;;;;;;;;;;;;;;;;;4924103;29;19918;-88
2022/09/13 18:43:10;;;;;;;;;;;;;;;;;;4904394;29;20574;-89
2022/09/13 18:45:37;;;;;;;;;;;;;;;;;;4922554;29;20072;-89
2022/09/13 18:48:03;;;;;;;;;;;;;;;;;;4919564;29;19971;-88
2022/09/13 18:50:28;;;;;;;;;;;;;;;;;;4921689;29;19982;-88
2022/09/13 18:52:56;;;;;;;;;;;;;;;;;;4923759;29;20277;-88
2022/09/13 18:55:21;;;;;;;;;;;;;;;;;;4928350;29;19950;-88
2022/09/13 18:57:46;;;;;;;;;;;;;;;;;;4924875;29;20314;-88
2022/09/13 19:00:12;;;;;;;;;;;;;;;;;;4923826;29;19954;-87
2022/09/13 19:02:37;;;;;;;;;;;;;;;;;;4920420;29;19982;-89
2022/09/13 19:05:02;;;;;;;;;;;;;;;;;;4920155;29;19920;-87
2022/09/13 19:07:27;;;;;;;;;;;;;;;;;;4921860;29;20359;-88
2022/09/13 19:09:52;;;;;;;;;;;;;;;;;;4922837;29;19921;-88
2022/09/13 19:12:17;;;;;;;;;;;;;;;;;;4925199;29;20163;-87
2022/09/13 19:14:43;;;;;;;;;;;;;;;;;;4923096;29;20013;-88
2022/09/13 19:17:08;;;;;;;;;;;;;;;;;;4919564;29;20148;-88
2022/09/13 19:19:34;;;;;;;;;;;;;;;;;;4919760;29;19922;-88
2022/09/13 19:21:59;;;;;;;;;;;;;;;;;;4923147;29;19914;-88
2022/09/13 19:24:24;;;;;;;;;;;;;;;;;;4918126;29;19940;-88
2022/09/13 19:26:50;;;;;;;;;;;;;;;;;;4923438;29;19919;-88
2022/09/13 19:29:15;;;;;;;;;;;;;;;;;;4923162;29;19922;-88
2022/09/13 19:31:40;;;;;;;;;;;;;;;;;;4921181;29;19997;-88
2022/09/13 19:34:05;;;;;;;;;;;;;;;;;;4924475;29;19930;-88
2022/09/13 19:36:31;;;;;;;;;;;;;;;;;;4923399;29;19919;-88
2022/09/13 19:38:56;;;;;;;;;;;;;;;;;;4928426;29;19919;-88
2022/09/13 19:41:24;;;;;;;;;;;;;;;;;;4912609;29;20301;-88
2022/09/13 19:43:50;;;;;;;;;;;;;;;;;;4918074;29;19915;-89
2022/09/13 19:46:15;;;;;;;;;;;;;;;;;;4927808;29;20840;-88
2022/09/13 19:48:40;;;;;;;;;;;;;;;;;;4929288;29;19919;-87
2022/09/13 19:51:05;;;;;;;;;;;;;;;;;;4916095;29;19966;-89
2022/09/13 19:53:30;;;;;;;;;;;;;;;;;;4928263;29;19919;-88
2022/09/13 19:55:56;;;;;;;;;;;;;;;;;;4927626;29;19923;-88
2022/09/13 19:58:21;;;;;;;;;;;;;;;;;;4929504;29;19919;-88
2022/09/13 20:00:46;;;;;;;;;;;;;;;;;;4927477;29;19982;-88
2022/09/13 20:03:11;;;;;;;;;;;;;;;;;;4926258;29;20013;-88
2022/09/13 20:05:37;;;;;;;;;;;;;;;;;;4931006;29;19915;-89
2022/09/13 20:08:02;;;;;;;;;;;;;;;;;;4930392;29;19919;-88
2022/09/13 20:10:27;;;;;;;;;;;;;;;;;;4933298;29;19919;-89
2022/09/13 20:12:55;;;;;;;;;;;;;;;;;;4930038;29;20005;-88
2022/09/13 20:15:21;;;;;;;;;;;;;;;;;;4923748;29;20415;-88
2022/09/13 20:17:46;;;;;;;;;;;;;;;;;;4927213;29;19918;-88
2022/09/13 20:20:11;;;;;;;;;;;;;;;;;;4931994;29;20096;-89
2022/09/13 20:22:36;;;;;;;;;;;;;;;;;;4933196;29;19919;-88
2022/09/13 20:25:03;;;;;;;;;;;;;;;;;;4932295;29;20418;-89
2022/09/13 20:27:28;;;;;;;;;;;;;;;;;;4925643;29;20439;-88
2022/09/13 20:29:54;;;;;;;;;;;;;;;;;;4933836;29;19915;-88
2022/09/13 20:32:20;;;;;;;;;;;;;;;;;;4930880;29;20399;-89
2022/09/13 20:34:46;;;;;;;;;;;;;;;;;;4931812;29;19915;-89
2022/09/13 20:37:11;;;;;;;;;;;;;;;;;;4929401;29;19919;-88
2022/09/13 20:39:37;;;;;;;;;;;;;;;;;;4931014;29;20404;-89
2022/09/13 20:42:02;;;;;;;;;;;;;;;;;;4933845;29;19923;-88
2022/09/13 20:44:27;;;;;;;;;;;;;;;;;;4925207;29;20533;-88
2022/09/13 20:46:52;;;;;;;;;;;;;;;;;;4931205;29;19996;-88
2022/09/13 20:49:18;;;;;;;;;;;;;;;;;;4927309;29;19940;-89
2022/09/13 20:51:45;;;;;;;;;;;;;;;;;;4931285;29;20018;-88
2022/09/13 20:54:10;;;;;;;;;;;;;;;;;;4924112;29;19926;-88
2022/09/13 20:56:36;;;;;;;;;;;;;;;;;;4929682;29;19920;-88
2022/09/13 20:59:01;;;;;;;;;;;;;;;;;;4928167;29;19988;-89
2022/09/13 21:01:26;;;;;;;;;;;;;;;;;;4930756;29;19918;-89
2022/09/13 21:03:51;;;;;;;;;;;;;;;;;;4933153;29;19921;-89
2022/09/13 21:06:19;;;;;;;;;;;;;;;;;;4932985;29;20320;-89
2022/09/13 21:08:45;;;;;;;;;;;;;;;;;;4931865;29;20280;-88
2022/09/13 21:11:11;;;;;;;;;;;;;;;;;;4927421;29;20416;-89
2022/09/13 21:13:36;;;;;;;;;;;;;;;;;;4937233;29;20059;-88
2022/09/13 21:16:01;;;;;;;;;;;;;;;;;;4927293;29;19915;-89
2022/09/13 21:18:27;;;;;;;;;;;;;;;;;;4930677;29;19954;-89
2022/09/13 21:20:52;;;;;;;;;;;;;;;;;;4934672;29;20373;-88
2022/09/13 21:23:17;;;;;;;;;;;;;;;;;;4921255;29;19982;-89
2022/09/13 21:25:42;;;;;;;;;;;;;;;;;;4928282;29;20381;-89
2022/09/13 21:28:10;;;;;;;;;;;;;;;;;;4939381;29;19916;-89
2022/09/13 21:30:35;;;;;;;;;;;;;;;;;;4928757;29;19914;-89
2022/09/13 21:33:00;;;;;;;;;;;;;;;;;;4930636;29;19978;-89
2022/09/13 21:35:26;;;;;;;;;;;;;;;;;;4932982;29;19969;-89
2022/09/13 21:37:51;;;;;;;;;;;;;;;;;;4927406;29;19915;-89
2022/09/13 21:40:16;;;;;;;;;;;;;;;;;;4929410;29;20243;-89
2022/09/13 21:42:41;;;;;;;;;;;;;;;;;;4936241;29;20392;-89
2022/09/13 21:45:07;;;;;;;;;;;;;;;;;;4925774;29;19970;-89
2022/09/13 21:47:32;;;;;;;;;;;;;;;;;;4928239;29;19919;-88
2022/09/13 21:49:57;;;;;;;;;;;;;;;;;;4927322;29;19982;-89
2022/09/13 21:52:22;;;;;;;;;;;;;;;;;;4929516;29;19919;-89
2022/09/13 21:54:47;;;;;;;;;;;;;;;;;;4929795;29;19958;-89
2022/09/13 21:57:13;;;;;;;;;;;;;;;;;;4928251;29;21060;-87
2022/09/13 21:59:38;;;;;;;;;;;;;;;;;;4926780;29;19922;-89
2022/09/13 22:02:03;;;;;;;;;;;;;;;;;;4927058;29;19922;-88
2022/09/13 22:04:28;;;;;;;;;;;;;;;;;;4928179;29;19927;-88
2022/09/13 22:06:53;;;;;;;;;;;;;;;;;;4922266;29;19919;-87
2022/09/13 22:09:18;;;;;;;;;;;;;;;;;;4930077;29;19991;-90
2022/09/13 22:11:44;;;;;;;;;;;;;;;;;;4929575;28;19921;-89
2022/09/13 22:14:09;;;;;;;;;;;;;;;;;;4933118;29;19915;-89
2022/09/13 22:16:34;;;;;;;;;;;;;;;;;;4926913;29;19934;-89
2022/09/13 22:18:59;;;;;;;;;;;;;;;;;;4925942;29;19919;-89
2022/09/13 22:21:24;;;;;;;;;;;;;;;;;;4932166;29;19914;-88
2022/09/13 22:23:50;;;;;;;;;;;;;;;;;;4925331;29;20365;-88
2022/09/13 22:26:15;;;;;;;;;;;;;;;;;;4926789;29;20006;-89
2022/09/13 22:28:40;;;;;;;;;;;;;;;;;;4932032;29;19955;-89
2022/09/13 22:31:05;;;;;;;;;;;;;;;;;;4931229;29;19953;-88
2022/09/13 22:33:31;;;;;;;;;;;;;;;;;;4928222;29;19943;-89